createdAt,value
2019-05-02T00:01:01.220Z,63.30
2019-05-02T00:03:31.392Z,64.50
2019-05-02T00:06:03.018Z,72.70
2019-05-02T00:08:33.196Z,67.23
2019-05-02T00:11:03.423Z,69.13
2019-05-02T00:13:32.618Z,70.13
2019-05-02T00:16:01.812Z,66.37
2019-05-02T00:18:32.063Z,66.63
2019-05-02T00:21:03.140Z,71.53
2019-05-02T00:23:32.344Z,68.83
2019-05-02T00:26:01.396Z,74.50
2019-05-02T00:28:30.491Z,64.47
2019-05-02T00:30:59.596Z,67.37
2019-05-02T00:33:29.245Z,63.87
2019-05-02T00:35:59.482Z,66.70
2019-05-02T00:38:33.368Z,64.00
2019-05-02T00:41:02.328Z,72.13
2019-05-02T00:43:34.584Z,65.47
2019-05-02T00:46:01.130Z,65.90
2019-05-02T00:48:38.159Z,70.67
2019-05-02T00:51:07.230Z,69.93
2019-05-02T00:53:36.346Z,71.97
2019-05-02T00:56:09.175Z,71.97
2019-05-02T00:58:36.494Z,77.73
2019-05-02T01:01:39.832Z,66.17
2019-05-02T01:04:15.324Z,69.43
2019-05-02T01:06:44.654Z,71.20
2019-05-02T01:09:15.327Z,78.90
2019-05-02T01:11:52.577Z,81.93
2019-05-02T01:14:21.512Z,76.23
2019-05-02T01:16:54.346Z,75.70
2019-05-02T01:19:21.345Z,73.27
2019-05-02T01:21:50.453Z,81.33
2019-05-02T01:24:19.532Z,80.77
2019-05-02T01:26:59.820Z,80.10
2019-05-02T01:29:34.180Z,75.97
2019-05-02T01:32:10.532Z,81.53
2019-05-02T01:35:10.556Z,81.03
2019-05-02T01:38:17.064Z,86.03
2019-05-02T01:40:52.605Z,82.03
2019-05-02T01:43:25.334Z,82.90
2019-05-02T01:45:54.882Z,79.37
2019-05-02T01:48:24.212Z,85.30
2019-05-02T01:50:53.243Z,90.90
2019-05-02T01:53:22.305Z,85.20
2019-05-02T01:55:51.892Z,79.53
2019-05-02T01:58:22.927Z,83.87
2019-05-02T02:00:51.998Z,77.23
2019-05-02T02:03:21.185Z,82.53
2019-05-02T02:05:50.188Z,85.23
2019-05-02T02:08:19.245Z,86.63
2019-05-02T02:10:50.722Z,88.10
2019-05-02T02:13:18.968Z,87.33
2019-05-02T02:15:48.157Z,78.80
2019-05-02T02:18:22.212Z,78.90
2019-05-02T02:21:11.240Z,83.40
2019-05-02T02:23:57.886Z,92.83
2019-05-02T02:26:26.935Z,86.20
2019-05-02T02:28:56.093Z,88.67
2019-05-02T02:31:25.635Z,88.43
2019-05-02T02:33:55.057Z,83.17
2019-05-02T02:36:31.255Z,84.80
2019-05-02T02:38:55.040Z,89.90
2019-05-02T02:41:24.093Z,76.30
2019-05-02T02:44:21.137Z,88.03
2019-05-02T02:46:50.821Z,84.83
2019-05-02T02:49:24.001Z,90.37
2019-05-02T02:51:50.630Z,85.83
2019-05-02T02:54:19.665Z,90.67
2019-05-02T02:56:48.662Z,84.73
2019-05-02T02:59:19.365Z,82.60
2019-05-02T03:01:48.510Z,85.97
2019-05-02T03:04:17.477Z,84.93
2019-05-02T03:06:47.202Z,86.37
2019-05-02T03:09:20.141Z,83.77
2019-05-02T03:12:06.226Z,81.53
2019-05-02T03:14:41.143Z,78.87
2019-05-02T03:17:09.027Z,87.03
2019-05-02T03:19:38.100Z,78.37
2019-05-02T03:22:07.624Z,85.67
2019-05-02T03:24:44.255Z,81.80
2019-05-02T03:27:08.160Z,76.87
2019-05-02T03:29:44.330Z,81.33
2019-05-02T03:32:16.900Z,80.77
2019-05-02T03:34:53.009Z,80.40
2019-05-02T03:37:13.950Z,81.53
2019-05-02T03:39:42.333Z,76.10
2019-05-02T03:42:11.450Z,84.67
2019-05-02T03:44:40.466Z,83.83
2019-05-02T03:47:09.574Z,82.50
2019-05-02T03:49:41.070Z,85.07
2019-05-02T03:52:09.507Z,79.53
2019-05-02T03:54:48.449Z,81.87
2019-05-02T03:57:09.228Z,82.50
2019-05-02T03:59:41.597Z,83.03
2019-05-02T04:02:14.081Z,87.30
2019-05-02T04:04:40.263Z,94.23
2019-05-02T04:07:10.123Z,85.27
2019-05-02T04:09:41.977Z,87.77
2019-05-02T04:12:18.739Z,82.67
2019-05-02T04:14:40.834Z,89.13
2019-05-02T04:17:11.232Z,89.53
2019-05-02T04:19:40.413Z,93.17
2019-05-02T04:22:11.911Z,96.10
2019-05-02T04:24:40.773Z,96.33
2019-05-02T04:27:09.829Z,97.00
2019-05-02T04:29:39.189Z,85.73
2019-05-02T04:32:11.818Z,90.03
2019-05-02T04:34:39.000Z,99.20
2019-05-02T04:37:07.950Z,88.80
2019-05-02T04:39:39.123Z,91.23
2019-05-02T04:42:13.217Z,96.60
2019-05-02T04:44:44.639Z,95.67
2019-05-02T04:47:14.150Z,92.40
2019-05-02T04:49:39.929Z,94.73
2019-05-02T04:52:12.284Z,94.17
2019-05-02T04:54:40.131Z,92.67
2019-05-02T04:57:09.153Z,97.73
2019-05-02T04:59:39.480Z,93.07
2019-05-02T05:02:09.477Z,95.63
2019-05-02T05:04:42.766Z,95.73
2019-05-02T05:07:09.570Z,86.70
2019-05-02T05:09:40.017Z,81.83
2019-05-02T05:12:09.780Z,82.27
2019-05-02T05:14:43.104Z,92.07
2019-05-02T05:17:09.644Z,82.63
2019-05-02T05:19:38.564Z,85.13
2019-05-02T05:22:11.720Z,86.63
2019-05-02T05:24:43.487Z,79.50
2019-05-02T05:27:13.392Z,82.03
2019-05-02T05:29:45.910Z,83.20
2019-05-02T05:32:13.822Z,80.60
2019-05-02T05:34:42.631Z,84.13
2019-05-02T05:37:13.385Z,79.20
2019-05-02T05:39:43.039Z,81.97
2019-05-02T05:42:12.906Z,84.07
2019-05-02T05:44:41.795Z,83.53
2019-05-02T05:47:12.220Z,87.53
2019-05-02T05:49:41.547Z,84.57
2019-05-02T05:52:10.505Z,87.23
2019-05-02T05:54:42.024Z,89.47
2019-05-02T05:57:12.128Z,84.97
2019-05-02T05:59:40.582Z,87.57
2019-05-02T06:02:12.654Z,83.47
2019-05-02T06:04:40.560Z,96.87
2019-05-02T06:07:09.548Z,92.47
2019-05-02T06:09:38.746Z,92.43
2019-05-02T06:12:07.714Z,94.43
2019-05-02T06:14:36.564Z,97.00
2019-05-02T06:17:05.575Z,103.40
2019-05-02T06:19:34.486Z,96.07
2019-05-02T06:22:03.490Z,101.77
2019-05-02T06:24:34.020Z,104.63
2019-05-02T06:27:02.999Z,98.67
2019-05-02T06:29:31.971Z,103.00
2019-05-02T06:32:02.854Z,99.83
2019-05-02T06:34:31.919Z,117.00
2019-05-02T06:37:01.237Z,122.47
2019-05-02T06:39:32.008Z,116.80
2019-05-02T06:42:01.054Z,117.30
2019-05-02T06:44:30.023Z,121.70
2019-05-02T06:47:03.920Z,133.97
2019-05-02T06:49:29.826Z,115.97
2019-05-02T06:51:58.693Z,118.87
2019-05-02T06:54:27.705Z,124.63
2019-05-02T06:56:56.749Z,118.33
2019-05-02T06:59:25.832Z,119.80
2019-05-02T07:01:57.551Z,112.60
2019-05-02T07:04:25.607Z,107.40
2019-05-02T07:07:13.791Z,112.80
2019-05-02T07:09:43.213Z,107.20
2019-05-02T07:12:14.813Z,107.60
2019-05-02T07:14:45.699Z,101.80
2019-05-02T07:17:32.427Z,103.97
2019-05-02T07:20:05.325Z,102.80
2019-05-02T07:22:38.618Z,86.00
2019-05-02T07:25:06.861Z,88.87
2019-05-02T07:27:39.026Z,87.90
2019-05-02T07:30:08.995Z,88.17
2019-05-02T07:32:37.930Z,90.50
2019-05-02T07:35:07.147Z,83.63
2019-05-02T07:37:36.060Z,98.30
2019-05-02T07:40:05.883Z,93.57
2019-05-02T07:42:36.897Z,81.70
2019-05-02T07:45:09.322Z,86.60
2019-05-02T07:47:40.371Z,84.30
2019-05-02T07:50:10.416Z,84.37
2019-05-02T07:52:41.071Z,87.10
2019-05-02T07:55:10.223Z,86.17
2019-05-02T07:57:39.197Z,87.80
2019-05-02T08:00:09.042Z,83.33
2019-05-02T08:02:37.971Z,91.03
2019-05-02T08:05:08.810Z,83.70
2019-05-02T08:07:38.117Z,88.93
2019-05-02T08:10:07.399Z,82.73
2019-05-02T08:12:36.362Z,87.53
2019-05-02T08:15:12.551Z,86.07
2019-05-02T08:17:38.109Z,87.67
2019-05-02T08:20:08.617Z,85.53
2019-05-02T08:22:37.827Z,88.43
2019-05-02T08:25:10.574Z,93.33
2019-05-02T08:27:44.338Z,88.10
2019-05-02T08:30:26.845Z,94.23
2019-05-02T08:32:55.795Z,93.17
2019-05-02T08:35:27.887Z,90.83
2019-05-02T08:37:56.278Z,80.47
2019-05-02T08:40:25.458Z,82.67
2019-05-02T08:42:54.441Z,88.03
2019-05-02T08:45:23.438Z,91.57
2019-05-02T08:47:52.353Z,92.73
2019-05-02T08:50:21.272Z,84.67
2019-05-02T08:52:50.315Z,83.30
2019-05-02T08:55:19.179Z,79.20
2019-05-02T08:57:48.153Z,81.10
2019-05-02T09:00:17.327Z,74.43
2019-05-02T09:02:46.356Z,75.60
2019-05-02T09:05:15.462Z,71.50
2019-05-02T09:07:44.435Z,81.33
2019-05-02T09:10:13.691Z,79.20
2019-05-02T09:12:45.477Z,71.70
2019-05-02T09:15:13.766Z,74.60
2019-05-02T09:17:51.771Z,71.63
2019-05-02T09:20:20.577Z,64.73
2019-05-02T09:22:51.381Z,68.00
2019-05-02T09:25:18.378Z,65.13
2019-05-02T09:27:47.244Z,73.37
2019-05-02T09:30:17.209Z,66.27
2019-05-02T09:32:47.026Z,68.40
2019-05-02T09:35:16.070Z,64.70
2019-05-02T09:37:45.038Z,63.60
2019-05-02T09:40:16.649Z,62.67
2019-05-02T09:42:47.484Z,69.27
2019-05-02T09:45:27.478Z,66.20
2019-05-02T09:48:01.503Z,69.27
2019-05-02T09:50:29.485Z,62.77
2019-05-02T09:52:54.999Z,61.33
2019-05-02T09:55:24.069Z,70.83
2019-05-02T09:57:53.222Z,62.90
2019-05-02T10:00:36.390Z,64.47
2019-05-02T10:03:06.862Z,66.70
2019-05-02T10:05:35.921Z,68.00
2019-05-02T10:08:06.846Z,60.37
2019-05-02T10:10:37.141Z,59.37
2019-05-02T10:13:07.624Z,57.20
2019-05-02T10:15:36.719Z,56.87
2019-05-02T10:18:10.638Z,62.90
2019-05-02T10:20:36.927Z,64.37
2019-05-02T10:23:06.044Z,60.23
2019-05-02T10:25:38.453Z,64.80
2019-05-02T10:28:05.925Z,58.93
2019-05-02T10:30:36.126Z,59.50
2019-05-02T10:33:05.674Z,63.27
2019-05-02T10:35:40.720Z,58.55
2019-05-02T10:38:09.541Z,55.63
2019-05-02T10:40:39.698Z,57.17
2019-05-02T10:43:08.716Z,57.78
2019-05-02T10:45:39.044Z,61.13
2019-05-02T10:48:21.505Z,62.13
2019-05-02T10:50:44.355Z,65.60
2019-05-02T10:53:15.721Z,58.23
2019-05-02T10:55:44.113Z,64.45
2019-05-02T10:58:13.098Z,65.70
2019-05-02T11:00:45.269Z,60.33
2019-05-02T11:03:28.282Z,56.37
2019-05-02T11:06:05.653Z,62.13
2019-05-02T11:08:31.717Z,56.92
2019-05-02T11:11:02.357Z,58.20
2019-05-02T11:13:55.397Z,54.75
2019-05-02T11:16:42.846Z,56.08
2019-05-02T11:19:45.830Z,54.73
2019-05-02T11:22:15.006Z,59.58
2019-05-02T11:24:43.850Z,57.93
2019-05-02T11:27:12.900Z,53.70
2019-05-02T11:29:42.607Z,54.77
2019-05-02T11:32:12.825Z,53.80
2019-05-02T11:34:42.102Z,52.55
2019-05-02T11:37:12.132Z,52.45
2019-05-02T11:39:46.526Z,57.73
2019-05-02T11:42:12.535Z,54.67
2019-05-02T11:44:41.869Z,53.33
2019-05-02T11:47:12.584Z,52.98
2019-05-02T11:49:42.530Z,53.65
2019-05-02T11:52:12.609Z,55.80
2019-05-02T11:54:46.814Z,54.90
2019-05-02T11:57:12.090Z,50.98
2019-05-02T11:59:42.504Z,51.70
2019-05-02T12:02:21.954Z,56.85
2019-05-02T12:04:54.280Z,53.83
2019-05-02T12:07:23.093Z,51.85
2019-05-02T12:09:57.020Z,53.33
2019-05-02T12:12:27.335Z,54.63
2019-05-02T12:14:53.926Z,52.38
2019-05-02T12:17:22.856Z,53.30
2019-05-02T12:19:52.344Z,45.92
2019-05-02T12:22:22.597Z,52.58
2019-05-02T12:24:51.956Z,49.77
2019-05-02T12:27:22.056Z,50.75
2019-05-02T12:29:57.754Z,52.08
2019-05-02T12:32:22.463Z,50.23
2019-05-02T12:34:52.627Z,47.75
2019-05-02T12:37:22.002Z,49.58
2019-05-02T12:39:51.711Z,54.20
2019-05-02T12:42:23.823Z,50.92
2019-05-02T12:44:53.239Z,47.88
2019-05-02T12:47:22.630Z,46.00
2019-05-02T12:49:52.053Z,46.10
2019-05-02T12:52:22.541Z,50.30
2019-05-02T12:54:52.563Z,51.50
2019-05-02T12:57:22.045Z,49.20
2019-05-02T12:59:52.480Z,50.50
2019-05-02T13:02:35.260Z,40.28
2019-05-02T13:05:04.481Z,38.98
2019-05-02T13:07:33.405Z,36.58
2019-05-02T13:10:02.583Z,38.88
2019-05-02T13:12:34.655Z,35.27
2019-05-02T13:15:03.819Z,36.97
2019-05-02T13:17:37.200Z,33.67
2019-05-02T13:20:04.613Z,37.03
2019-05-02T13:22:55.941Z,34.20
2019-05-02T13:25:27.406Z,31.63
2019-05-02T13:27:56.949Z,29.57
2019-05-02T13:30:42.971Z,33.98
2019-05-02T13:33:08.007Z,29.73
2019-05-02T13:35:49.260Z,35.07
2019-05-02T13:38:22.395Z,30.25
2019-05-02T13:40:51.835Z,30.80
2019-05-02T13:43:22.589Z,34.47
2019-05-02T13:46:15.381Z,31.43
2019-05-02T13:48:44.321Z,31.70
2019-05-02T13:51:13.299Z,26.87
2019-05-02T13:53:54.830Z,35.30
2019-05-02T13:56:45.748Z,31.63
2019-05-02T13:59:15.218Z,30.90
2019-05-02T14:01:45.341Z,29.37
2019-05-02T14:04:15.187Z,28.73
2019-05-02T14:06:44.477Z,32.60
2019-05-02T14:09:43.888Z,30.33
2019-05-02T14:12:32.092Z,25.53
2019-05-02T14:15:02.999Z,25.23
2019-05-02T14:17:32.619Z,25.05
2019-05-02T14:20:10.445Z,27.57
2019-05-02T14:22:32.599Z,27.05
2019-05-02T14:25:01.976Z,29.57
2019-05-02T14:27:32.066Z,28.60
2019-05-02T14:30:02.424Z,29.87
2019-05-02T14:32:32.909Z,29.50
2019-05-02T14:35:28.250Z,28.57
2019-05-02T14:38:13.114Z,26.23
2019-05-02T14:40:52.135Z,25.47
2019-05-02T14:43:44.565Z,27.80
2019-05-02T14:46:10.038Z,24.77
2019-05-02T14:48:45.101Z,30.23
2019-05-02T14:51:16.649Z,29.27
2019-05-02T14:53:43.231Z,28.80
2019-05-02T14:56:17.216Z,28.13
2019-05-02T14:58:46.233Z,30.43
2019-05-02T15:01:17.243Z,30.50
2019-05-02T15:03:45.983Z,29.23
2019-05-02T15:06:15.097Z,28.60
2019-05-02T15:08:44.986Z,25.70
2019-05-02T15:11:13.951Z,28.13
2019-05-02T15:13:43.652Z,32.10
2019-05-02T15:16:18.006Z,31.37
2019-05-02T15:18:47.525Z,32.17
2019-05-02T15:21:22.883Z,36.53
2019-05-02T15:23:54.435Z,33.60
2019-05-02T15:26:26.452Z,31.10
2019-05-02T15:28:53.475Z,30.03
2019-05-02T15:31:28.554Z,28.37
2019-05-02T15:34:11.994Z,34.30
2019-05-02T15:36:45.742Z,40.60
2019-05-02T15:41:44.797Z,40.50
2019-05-02T15:44:14.665Z,47.90
2019-05-02T15:46:43.702Z,49.33
2019-05-02T15:49:12.638Z,46.73
2019-05-02T15:51:45.061Z,47.23
2019-05-02T15:54:12.658Z,43.67
2019-05-02T15:57:00.694Z,43.80
2019-05-02T15:59:32.668Z,43.10
2019-05-02T16:02:08.047Z,45.30
2019-05-02T16:04:38.486Z,48.43
2019-05-02T16:07:08.495Z,45.00
2019-05-02T16:09:37.690Z,41.30
2019-05-02T16:12:06.726Z,45.47
2019-05-02T16:14:36.134Z,47.80
2019-05-02T16:17:05.429Z,49.63
2019-05-02T16:19:38.699Z,49.47
2019-05-02T16:22:12.932Z,53.87
2019-05-02T16:24:43.997Z,53.87
2019-05-02T16:27:16.548Z,57.80
2019-05-02T16:29:43.417Z,58.23
2019-05-02T16:32:35.634Z,44.70
2019-05-02T16:35:12.203Z,40.73
2019-05-02T16:37:37.138Z,24.77
2019-05-02T16:40:08.053Z,24.90
2019-05-02T16:42:37.494Z,26.53
2019-05-02T16:45:08.753Z,27.47
2019-05-02T16:47:37.763Z,34.60
2019-05-02T16:50:08.041Z,33.37
2019-05-02T16:52:38.030Z,35.03
2019-05-02T16:55:13.673Z,37.03
2019-05-02T16:57:39.558Z,37.47
2019-05-02T17:00:11.354Z,40.37
2019-05-02T17:02:43.545Z,44.47
2019-05-02T17:05:12.139Z,51.13
2019-05-02T17:07:54.515Z,45.53
2019-05-02T17:10:28.411Z,52.27
2019-05-02T17:13:02.630Z,54.03
2019-05-02T17:15:35.682Z,52.10
2019-05-02T17:18:12.774Z,53.53
2019-05-02T17:20:37.355Z,52.57
2019-05-02T17:23:07.594Z,48.60
2019-05-02T17:25:37.064Z,44.00
2019-05-02T17:28:10.378Z,53.20
2019-05-02T17:30:39.004Z,46.20
2019-05-02T17:33:14.465Z,42.13
2019-05-02T17:35:43.425Z,53.00
2019-05-02T17:38:09.636Z,55.03
2019-05-02T17:40:38.550Z,49.87
2019-05-02T17:43:07.603Z,47.50
2019-05-02T17:45:38.745Z,52.43
2019-05-02T17:48:15.258Z,48.13
2019-05-02T17:51:02.291Z,49.73
2019-05-02T17:53:33.611Z,48.03
2019-05-02T17:56:02.125Z,44.90
2019-05-02T17:58:31.837Z,46.53
2019-05-02T18:01:02.797Z,38.20
2019-05-02T18:03:35.165Z,40.70
2019-05-02T18:06:07.717Z,45.43
2019-05-02T18:08:34.442Z,39.20
2019-05-02T18:11:03.532Z,38.47
2019-05-02T18:13:33.853Z,35.30
2019-05-02T18:16:07.667Z,36.93
2019-05-02T18:18:37.559Z,35.83
2019-05-02T18:21:05.217Z,36.33
2019-05-02T18:23:36.311Z,37.10
2019-05-02T18:26:06.382Z,34.13
2019-05-02T18:28:46.250Z,32.47
2019-05-02T18:31:06.460Z,34.50
2019-05-02T18:33:35.944Z,31.63
2019-05-02T18:36:06.724Z,32.27
2019-05-02T18:38:35.871Z,29.03
2019-05-02T18:41:06.162Z,29.97
2019-05-02T18:43:36.114Z,27.80
2019-05-02T18:46:07.695Z,31.33
2019-05-02T18:48:44.223Z,29.20
2019-05-02T18:51:07.689Z,26.07
2019-05-02T18:53:36.547Z,23.50
2019-05-02T18:56:05.596Z,28.03
2019-05-02T18:58:36.392Z,27.07
2019-05-02T19:01:08.381Z,28.43
2019-05-02T19:03:37.769Z,23.13
2019-05-02T19:06:06.781Z,24.33
2019-05-02T19:08:45.634Z,26.30
2019-05-02T19:11:12.244Z,26.57
2019-05-02T19:13:42.741Z,31.27
2019-05-02T19:16:12.919Z,27.40
2019-05-02T19:18:42.521Z,30.20
2019-05-02T19:21:12.595Z,30.73
2019-05-02T19:23:42.505Z,29.00
2019-05-02T19:26:19.210Z,27.43
2019-05-02T19:29:14.095Z,29.20
2019-05-02T19:31:48.009Z,27.33
2019-05-02T19:34:22.937Z,35.50
2019-05-02T19:36:52.652Z,32.17
2019-05-02T19:39:24.037Z,30.43
2019-05-02T19:41:52.535Z,29.83
2019-05-02T19:44:29.206Z,32.77
2019-05-02T19:46:52.414Z,31.33
2019-05-02T19:49:22.410Z,33.23
2019-05-02T19:51:56.650Z,32.30
2019-05-02T19:54:23.225Z,32.67
2019-05-02T19:56:52.535Z,33.93
2019-05-02T19:59:25.358Z,36.87
2019-05-02T20:01:56.812Z,32.87
2019-05-02T20:04:29.440Z,36.57
2019-05-02T20:07:05.740Z,34.47
2019-05-02T20:09:38.146Z,33.33
2019-05-02T20:12:15.484Z,31.60
2019-05-02T20:15:01.748Z,31.03
2019-05-02T20:17:32.539Z,27.17
2019-05-02T20:20:07.055Z,31.13
2019-05-02T20:22:36.289Z,29.60
2019-05-02T20:25:06.314Z,30.93
2019-05-02T20:27:35.702Z,30.63
2019-05-02T20:30:05.939Z,31.07
2019-05-02T20:32:35.817Z,30.77
2019-05-02T20:35:04.938Z,30.07
2019-05-02T20:37:33.970Z,29.13
2019-05-02T20:40:03.053Z,29.80
2019-05-02T20:42:32.293Z,31.87
2019-05-02T20:45:02.705Z,29.87
2019-05-02T20:47:31.783Z,30.67
2019-05-02T20:50:02.675Z,35.23
2019-05-02T20:52:32.345Z,32.07
2019-05-02T20:55:01.848Z,35.03
2019-05-02T20:57:31.835Z,32.03
2019-05-02T21:00:01.639Z,30.93
2019-05-02T21:02:31.896Z,33.23
2019-05-02T21:05:02.761Z,30.50
2019-05-02T21:08:06.239Z,29.80
2019-05-02T21:10:38.561Z,32.63
2019-05-02T21:13:07.604Z,30.23
2019-05-02T21:15:36.654Z,26.67
2019-05-02T21:18:05.845Z,25.73
2019-05-02T21:20:35.278Z,22.90
2019-05-02T21:23:04.385Z,25.40
2019-05-02T21:25:33.569Z,25.53
2019-05-02T21:28:02.902Z,25.83
2019-05-02T21:30:34.161Z,24.30
2019-05-02T21:33:03.181Z,27.90
2019-05-02T21:35:32.365Z,27.20
2019-05-02T21:38:01.380Z,25.47
2019-05-02T21:40:32.556Z,27.60
2019-05-02T21:43:02.478Z,31.43
2019-05-02T21:45:32.052Z,26.90
2019-05-02T21:48:02.314Z,26.97
2019-05-02T21:50:40.014Z,31.03
2019-05-02T21:53:19.793Z,28.13
2019-05-02T21:56:02.898Z,28.93
2019-05-02T21:58:32.408Z,23.83
2019-05-02T22:01:09.428Z,20.90
2019-05-02T22:03:39.320Z,18.37
2019-05-02T22:06:08.500Z,19.40
2019-05-02T22:08:37.547Z,15.03
2019-05-02T22:11:06.680Z,17.40
2019-05-02T22:13:36.104Z,14.67
2019-05-02T22:16:05.177Z,18.13
2019-05-02T22:18:34.153Z,14.10
2019-05-02T22:21:03.235Z,12.87
2019-05-02T22:23:33.987Z,13.83
2019-05-02T22:26:03.109Z,11.97
2019-05-02T22:28:32.717Z,14.43
2019-05-02T22:31:03.233Z,11.07
2019-05-02T22:33:32.808Z,12.63
2019-05-02T22:36:01.983Z,13.27
2019-05-02T22:38:38.647Z,14.20
2019-05-02T22:41:07.720Z,17.97
2019-05-02T22:43:36.672Z,13.30
2019-05-02T22:46:06.864Z,14.97
2019-05-02T22:48:35.813Z,12.90
2019-05-02T22:51:04.818Z,12.30
2019-05-02T22:53:33.743Z,13.13
2019-05-02T22:56:03.149Z,14.03
2019-05-02T22:58:32.657Z,15.30
2019-05-02T23:01:01.920Z,12.73
2019-05-02T23:03:32.711Z,16.27
2019-05-02T23:06:01.817Z,14.60
2019-05-02T23:08:30.914Z,15.47
2019-05-02T23:10:59.911Z,11.73
2019-05-02T23:13:28.814Z,9.93
2019-05-02T23:15:57.755Z,13.63
2019-05-02T23:18:26.708Z,11.37
2019-05-02T23:20:55.590Z,12.43
2019-05-02T23:23:24.500Z,14.50
2019-05-02T23:26:12.844Z,14.90
2019-05-02T23:28:44.171Z,13.63
2019-05-02T23:31:14.022Z,11.00
2019-05-02T23:33:58.195Z,13.87
2019-05-02T23:36:28.700Z,11.53
2019-05-02T23:38:58.075Z,13.67
2019-05-02T23:41:27.419Z,13.10
2019-05-02T23:43:56.536Z,14.50
2019-05-02T23:46:25.454Z,10.37
2019-05-02T23:48:54.303Z,8.83
2019-05-02T23:51:23.303Z,12.87
2019-05-02T23:53:52.814Z,11.97
2019-05-02T23:56:22.138Z,16.33
2019-05-02T23:58:51.959Z,11.13
